sensor_id;sensor_type;location;lat;lon;timestamp;pressure;altitude;pressure_sealevel;temperature;humidity
46942;BME280;32676;52.630;4.896;2022-09-11T00:01:29;99876.72;;;16.18;83.30
46942;BME280;32676;52.630;4.896;2022-09-11T00:03:57;99806.41;;;15.76;83.47
46942;BME280;32676;52.630;4.896;2022-09-11T00:06:25;99877.16;;;16.12;83.24
46942;BME280;32676;52.630;4.896;2022-09-11T00:08:52;99890.81;;;16.19;83.38
46942;BME280;32676;52.630;4.896;2022-09-11T00:11:21;99877.78;;;16.16;83.45
46942;BME280;32676;52.630;4.896;2022-09-11T00:13:50;99868.22;;;16.13;83.32
46942;BME280;32676;52.630;4.896;2022-09-11T00:16:20;99853.41;;;16.10;83.51
46942;BME280;32676;52.630;4.896;2022-09-11T00:18:47;99831.41;;;15.97;83.63
46942;BME280;32676;52.630;4.896;2022-09-11T00:21:16;99835.00;;;15.96;83.73
46942;BME280;32676;52.630;4.896;2022-09-11T00:23:43;99832.63;;;16.04;83.84
46942;BME280;32676;52.630;4.896;2022-09-11T00:26:10;99763.41;;;15.59;83.72
46942;BME280;32676;52.630;4.896;2022-09-11T00:28:37;99779.94;;;15.76;83.98
46942;BME280;32676;52.630;4.896;2022-09-11T00:31:05;99813.69;;;15.98;83.93
46942;BME280;32676;52.630;4.896;2022-09-11T00:33:33;99770.69;;;15.68;83.92
46942;BME280;32676;52.630;4.896;2022-09-11T00:36:00;99795.69;;;15.90;84.28
46942;BME280;32676;52.630;4.896;2022-09-11T00:38:31;99792.41;;;15.86;84.03
46942;BME280;32676;52.630;4.896;2022-09-11T00:41:00;99800.84;;;15.91;84.21
46942;BME280;32676;52.630;4.896;2022-09-11T00:43:29;99800.03;;;15.91;84.20
46942;BME280;32676;52.630;4.896;2022-09-11T00:46:14;99793.03;;;15.90;84.03
46942;BME280;32676;52.630;4.896;2022-09-11T00:48:41;99756.81;;;15.65;84.14
46942;BME280;32676;52.630;4.896;2022-09-11T00:51:17;99797.56;;;15.88;84.25
46942;BME280;32676;52.630;4.896;2022-09-11T00:53:48;99774.41;;;15.79;84.21
46942;BME280;32676;52.630;4.896;2022-09-11T00:56:16;99769.44;;;15.74;84.11
46942;BME280;32676;52.630;4.896;2022-09-11T00:58:45;99743.25;;;15.57;84.17
46942;BME280;32676;52.630;4.896;2022-09-11T01:01:13;99764.22;;;15.72;84.53
46942;BME280;32676;52.630;4.896;2022-09-11T01:03:40;99774.41;;;15.79;84.48
46942;BME280;32676;52.630;4.896;2022-09-11T01:06:08;99779.47;;;15.82;84.43
46942;BME280;32676;52.630;4.896;2022-09-11T01:08:35;99777.78;;;15.81;84.09
46942;BME280;32676;52.630;4.896;2022-09-11T01:11:13;99759.13;;;15.69;84.01
46942;BME280;32676;52.630;4.896;2022-09-11T01:13:47;99756.09;;;15.76;84.22
46942;BME280;32676;52.630;4.896;2022-09-11T01:16:20;99743.03;;;15.72;84.27
46942;BME280;32676;52.630;4.896;2022-09-11T01:18:54;99751.06;;;15.71;83.99
46942;BME280;32676;52.630;4.896;2022-09-11T01:21:59;99733.81;;;15.65;84.09
46942;BME280;32676;52.630;4.896;2022-09-11T01:24:53;99728.00;;;15.60;84.08
46942;BME280;32676;52.630;4.896;2022-09-11T01:27:38;99739.84;;;15.67;84.48
46942;BME280;32676;52.630;4.896;2022-09-11T01:30:08;99723.53;;;15.61;84.18
46942;BME280;32676;52.630;4.896;2022-09-11T01:32:42;99712.13;;;15.60;84.10
46942;BME280;32676;52.630;4.896;2022-09-11T01:35:13;99711.38;;;15.58;83.99
46942;BME280;32676;52.630;4.896;2022-09-11T01:37:46;99687.38;;;15.48;83.97
46942;BME280;32676;52.630;4.896;2022-09-11T01:40:18;99667.69;;;15.40;84.33
46942;BME280;32676;52.630;4.896;2022-09-11T01:42:50;99668.84;;;15.48;84.09
46942;BME280;32676;52.630;4.896;2022-09-11T01:45:19;99657.09;;;15.40;84.13
46942;BME280;32676;52.630;4.896;2022-09-11T01:47:48;99665.78;;;15.42;83.96
46942;BME280;32676;52.630;4.896;2022-09-11T01:50:18;99648.19;;;15.41;84.09
46942;BME280;32676;52.630;4.896;2022-09-11T01:52:55;99646.50;;;15.40;84.26
46942;BME280;32676;52.630;4.896;2022-09-11T01:55:28;99637.84;;;15.38;84.25
46942;BME280;32676;52.630;4.896;2022-09-11T01:58:00;99632.66;;;15.36;84.23
46942;BME280;32676;52.630;4.896;2022-09-11T02:00:31;99624.06;;;15.32;84.54
46942;BME280;32676;52.630;4.896;2022-09-11T02:03:06;99622.38;;;15.31;84.49
46942;BME280;32676;52.630;4.896;2022-09-11T02:05:38;99581.59;;;15.10;84.14
46942;BME280;32676;52.630;4.896;2022-09-11T02:08:08;99605.88;;;15.28;84.33
46942;BME280;32676;52.630;4.896;2022-09-11T02:10:39;99612.03;;;15.28;84.13
46942;BME280;32676;52.630;4.896;2022-09-11T02:13:13;99611.41;;;15.25;84.29
46942;BME280;32676;52.630;4.896;2022-09-11T02:15:43;99613.94;;;15.26;84.73
46942;BME280;32676;52.630;4.896;2022-09-11T02:18:15;99594.91;;;15.21;84.48
46942;BME280;32676;52.630;4.896;2022-09-11T02:20:43;99585.16;;;15.22;84.51
46942;BME280;32676;52.630;4.896;2022-09-11T02:23:12;99594.91;;;15.21;84.48
46942;BME280;32676;52.630;4.896;2022-09-11T02:25:39;99588.09;;;15.17;84.73
46942;BME280;32676;52.630;4.896;2022-09-11T02:28:06;99593.41;;;15.17;84.71
46942;BME280;32676;52.630;4.896;2022-09-11T02:30:34;99602.41;;;15.14;84.77
46942;BME280;32676;52.630;4.896;2022-09-11T02:33:01;99621.13;;;15.24;85.10
46942;BME280;32676;52.630;4.896;2022-09-11T02:35:32;99608.13;;;15.21;84.98
46942;BME280;32676;52.630;4.896;2022-09-11T02:38:07;99564.88;;;14.96;84.99
46942;BME280;32676;52.630;4.896;2022-09-11T02:40:49;99584.72;;;15.15;84.88
46942;BME280;32676;52.630;4.896;2022-09-11T02:43:32;99564.22;;;15.06;84.80
46942;BME280;32676;52.630;4.896;2022-09-11T02:46:30;99558.72;;;15.09;84.64
46942;BME280;32676;52.630;4.896;2022-09-11T02:49:06;99506.31;;;14.77;84.56
46942;BME280;32676;52.630;4.896;2022-09-11T02:51:36;99547.72;;;15.02;84.62
46942;BME280;32676;52.630;4.896;2022-09-11T02:54:10;99533.75;;;15.00;84.37
46942;BME280;32676;52.630;4.896;2022-09-11T02:56:44;99543.50;;;15.00;84.46
46942;BME280;32676;52.630;4.896;2022-09-11T02:59:16;99531.22;;;14.98;84.63
46942;BME280;32676;52.630;4.896;2022-09-11T03:01:50;99477.75;;;14.69;84.37
46942;BME280;32676;52.630;4.896;2022-09-11T03:04:17;99516.53;;;14.94;84.22
46942;BME280;32676;52.630;4.896;2022-09-11T03:06:44;99500.13;;;14.89;84.08
46942;BME280;32676;52.630;4.896;2022-09-11T03:09:12;99491.47;;;14.87;84.17
46942;BME280;32676;52.630;4.896;2022-09-11T03:11:39;99484.72;;;14.83;84.34
46942;BME280;32676;52.630;4.896;2022-09-11T03:14:05;99469.72;;;14.71;84.27
46942;BME280;32676;52.630;4.896;2022-09-11T03:16:32;99478.59;;;14.83;84.43
46942;BME280;32676;52.630;4.896;2022-09-11T03:19:00;99476.91;;;14.82;84.72
46942;BME280;32676;52.630;4.896;2022-09-11T03:21:26;99488.31;;;14.82;84.70
46942;BME280;32676;52.630;4.896;2022-09-11T03:23:53;99471.44;;;14.72;84.69
46942;BME280;32676;52.630;4.896;2022-09-11T03:26:20;99491.69;;;14.84;84.41
46942;BME280;32676;52.630;4.896;2022-09-11T03:28:46;99415.84;;;14.35;84.75
46942;BME280;32676;52.630;4.896;2022-09-11T03:31:13;99428.72;;;14.52;84.50
46942;BME280;32676;52.630;4.896;2022-09-11T03:33:40;99456.31;;;14.74;84.59
46942;BME280;32676;52.630;4.896;2022-09-11T03:36:08;99458.94;;;14.74;84.56
46942;BME280;32676;52.630;4.896;2022-09-11T03:38:35;99442.25;;;14.61;84.68
46942;BME280;32676;52.630;4.896;2022-09-11T03:41:02;99478.19;;;14.76;85.18
46942;BME280;32676;52.630;4.896;2022-09-11T03:43:30;99469.72;;;14.71;85.20
46942;BME280;32676;52.630;4.896;2022-09-11T03:45:57;99490.44;;;14.77;85.38
46942;BME280;32676;52.630;4.896;2022-09-11T03:48:25;99478.19;;;14.76;85.22
46942;BME280;32676;52.630;4.896;2022-09-11T03:50:53;99480.09;;;14.74;85.53
46942;BME280;32676;52.630;4.896;2022-09-11T03:53:21;99471.44;;;14.72;85.09
46942;BME280;32676;52.630;4.896;2022-09-11T03:55:47;99462.78;;;14.70;85.10
46942;BME280;32676;52.630;4.896;2022-09-11T03:58:15;99422.06;;;14.47;85.25
46942;BME280;32676;52.630;4.896;2022-09-11T04:00:42;99450.69;;;14.66;85.13
46942;BME280;32676;52.630;4.896;2022-09-11T04:03:09;99447.31;;;14.64;85.05
46942;BME280;32676;52.630;4.896;2022-09-11T04:05:36;99443.00;;;14.63;85.24
46942;BME280;32676;52.630;4.896;2022-09-11T04:08:03;99442.25;;;14.61;85.17
46942;BME280;32676;52.630;4.896;2022-09-11T04:10:32;99435.28;;;14.59;85.09
46942;BME280;32676;52.630;4.896;2022-09-11T04:12:59;99426.63;;;14.57;85.07
46942;BME280;32676;52.630;4.896;2022-09-11T04:15:26;99423.22;;;14.55;85.11
46942;BME280;32676;52.630;4.896;2022-09-11T04:17:52;99367.25;;;14.25;84.68
46942;BME280;32676;52.630;4.896;2022-09-11T04:20:19;99426.69;;;14.56;85.26
46942;BME280;32676;52.630;4.896;2022-09-11T04:22:45;99387.97;;;14.31;85.18
46942;BME280;32676;52.630;4.896;2022-09-11T04:25:13;99427.63;;;14.55;85.20
46942;BME280;32676;52.630;4.896;2022-09-11T04:27:41;99433.78;;;14.55;85.68
46942;BME280;32676;52.630;4.896;2022-09-11T04:30:08;99405.06;;;14.38;85.41
46942;BME280;32676;52.630;4.896;2022-09-11T04:32:35;99407.78;;;14.49;85.21
46942;BME280;32676;52.630;4.896;2022-09-11T04:35:02;99407.06;;;14.47;85.64
46942;BME280;32676;52.630;4.896;2022-09-11T04:37:28;99400.19;;;14.45;85.50
46942;BME280;32676;52.630;4.896;2022-09-11T04:39:55;99382.47;;;14.34;85.38
46942;BME280;32676;52.630;4.896;2022-09-11T04:42:21;99401.13;;;14.44;85.37
46942;BME280;32676;52.630;4.896;2022-09-11T04:44:49;99404.63;;;14.44;85.53
46942;BME280;32676;52.630;4.896;2022-09-11T04:47:16;99404.63;;;14.44;85.53
46942;BME280;32676;52.630;4.896;2022-09-11T04:49:42;99414.25;;;14.45;85.66
46942;BME280;32676;52.630;4.896;2022-09-11T04:52:11;99414.25;;;14.45;85.80
46942;BME280;32676;52.630;4.896;2022-09-11T04:54:37;99397.44;;;14.33;85.66
46942;BME280;32676;52.630;4.896;2022-09-11T04:57:04;99417.72;;;14.46;85.47
46942;BME280;32676;52.630;4.896;2022-09-11T04:59:30;99416.88;;;14.45;85.80
46942;BME280;32676;52.630;4.896;2022-09-11T05:01:58;99419.63;;;14.44;85.34
46942;BME280;32676;52.630;4.896;2022-09-11T05:04:25;99413.72;;;14.40;85.42
46942;BME280;32676;52.630;4.896;2022-09-11T05:06:51;99411.81;;;14.42;85.39
46942;BME280;32676;52.630;4.896;2022-09-11T05:09:18;99388.41;;;14.25;85.53
46942;BME280;32676;52.630;4.896;2022-09-11T05:11:46;99406.34;;;14.32;85.69
46942;BME280;32676;52.630;4.896;2022-09-11T05:14:13;99418.19;;;14.39;85.68
46942;BME280;32676;52.630;4.896;2022-09-11T05:16:39;99412.88;;;14.39;85.74
46942;BME280;32676;52.630;4.896;2022-09-11T05:19:09;99417.34;;;14.39;85.63
46942;BME280;32676;52.630;4.896;2022-09-11T05:21:35;99413.72;;;14.40;85.49
46942;BME280;32676;52.630;4.896;2022-09-11T05:24:02;99422.38;;;14.42;85.59
46942;BME280;32676;52.630;4.896;2022-09-11T05:26:30;99415.84;;;14.35;85.84
46942;BME280;32676;52.630;4.896;2022-09-11T05:28:58;99411.75;;;14.31;85.78
46942;BME280;32676;52.630;4.896;2022-09-11T05:31:26;99417.75;;;14.33;85.37
46942;BME280;32676;52.630;4.896;2022-09-11T05:33:54;99426.22;;;14.38;85.65
46942;BME280;32676;52.630;4.896;2022-09-11T05:36:22;99428.00;;;14.37;85.22
46942;BME280;32676;52.630;4.896;2022-09-11T05:38:50;99419.66;;;14.31;85.23
46942;BME280;32676;52.630;4.896;2022-09-11T05:41:18;99437.63;;;14.38;85.34
46942;BME280;32676;52.630;4.896;2022-09-11T05:43:45;99422.50;;;14.28;85.27
46942;BME280;32676;52.630;4.896;2022-09-11T05:46:15;99435.06;;;14.37;85.09
46942;BME280;32676;52.630;4.896;2022-09-11T05:48:42;99437.63;;;14.38;85.21
46942;BME280;32676;52.630;4.896;2022-09-11T05:51:11;99444.59;;;14.39;85.35
46942;BME280;32676;52.630;4.896;2022-09-11T05:53:39;99446.72;;;14.34;85.16
46942;BME280;32676;52.630;4.896;2022-09-11T05:56:07;99470.69;;;14.44;85.18
46942;BME280;32676;52.630;4.896;2022-09-11T05:58:35;99477.06;;;14.42;85.13
46942;BME280;32676;52.630;4.896;2022-09-11T06:01:04;99503.19;;;14.46;85.65
46942;BME280;32676;52.630;4.896;2022-09-11T06:03:31;99497.47;;;14.39;85.68
46942;BME280;32676;52.630;4.896;2022-09-11T06:05:58;99529.78;;;14.56;85.59
46942;BME280;32676;52.630;4.896;2022-09-11T06:08:26;99538.50;;;14.58;85.71
46942;BME280;32676;52.630;4.896;2022-09-11T06:10:57;99555.81;;;14.62;85.74
46942;BME280;32676;52.630;4.896;2022-09-11T06:13:24;99576.97;;;14.62;85.76
46942;BME280;32676;52.630;4.896;2022-09-11T06:15:50;99594.22;;;14.68;86.20
46942;BME280;32676;52.630;4.896;2022-09-11T06:18:17;99620.25;;;14.74;86.15
46942;BME280;32676;52.630;4.896;2022-09-11T06:20:54;99644.06;;;14.74;86.47
46942;BME280;32676;52.630;4.896;2022-09-11T06:23:20;99614.38;;;14.43;86.39
46942;BME280;32676;52.630;4.896;2022-09-11T06:25:47;99715.88;;;14.93;86.08
46942;BME280;32676;52.630;4.896;2022-09-11T06:28:15;99756.81;;;15.01;86.40
46942;BME280;32676;52.630;4.896;2022-09-11T06:30:42;99807.97;;;15.14;86.38
46942;BME280;32676;52.630;4.896;2022-09-11T06:33:08;99859.31;;;15.24;86.43
46942;BME280;32676;52.630;4.896;2022-09-11T06:35:34;99896.72;;;15.32;86.53
46942;BME280;32676;52.630;4.896;2022-09-11T06:38:01;99935.06;;;15.40;86.78
46942;BME280;32676;52.630;4.896;2022-09-11T06:40:27;99945.31;;;15.31;86.88
46942;BME280;32676;52.630;4.896;2022-09-11T06:42:54;100019.50;;;15.57;86.54
46942;BME280;32676;52.630;4.896;2022-09-11T06:45:23;100090.78;;;15.74;86.86
46942;BME280;32676;52.630;4.896;2022-09-11T06:47:50;100128.34;;;15.81;86.78
46942;BME280;32676;52.630;4.896;2022-09-11T06:50:17;100193.47;;;15.98;86.95
46942;BME280;32676;52.630;4.896;2022-09-11T06:52:44;100191.81;;;15.83;87.13
46942;BME280;32676;52.630;4.896;2022-09-11T06:55:11;100265.91;;;16.11;86.81
46942;BME280;32676;52.630;4.896;2022-09-11T06:57:38;100316.34;;;16.24;87.06
46942;BME280;32676;52.630;4.896;2022-09-11T07:00:08;100359.03;;;16.34;86.93
46942;BME280;32676;52.630;4.896;2022-09-11T07:02:36;100385.38;;;16.37;86.96
46942;BME280;32676;52.630;4.896;2022-09-11T07:05:03;100427.22;;;16.46;87.00
46942;BME280;32676;52.630;4.896;2022-09-11T07:07:30;100446.53;;;16.48;87.14
46942;BME280;32676;52.630;4.896;2022-09-11T07:09:58;100499.56;;;16.63;86.93
46942;BME280;32676;52.630;4.896;2022-09-11T07:12:28;100542.38;;;16.71;86.49
46942;BME280;32676;52.630;4.896;2022-09-11T07:14:56;100585.97;;;16.81;86.15
46942;BME280;32676;52.630;4.896;2022-09-11T07:17:22;100635.75;;;16.92;85.89
46942;BME280;32676;52.630;4.896;2022-09-11T07:19:50;100657.66;;;16.96;85.89
46942;BME280;32676;52.630;4.896;2022-09-11T07:22:17;100707.53;;;17.05;85.49
46942;BME280;32676;52.630;4.896;2022-09-11T07:24:43;100724.41;;;17.04;85.02
46942;BME280;32676;52.630;4.896;2022-09-11T07:27:11;100778.94;;;17.24;84.79
46942;BME280;32676;52.630;4.896;2022-09-11T07:29:38;100812.72;;;17.22;84.14
46942;BME280;32676;52.630;4.896;2022-09-11T07:32:05;100839.19;;;17.23;84.03
46942;BME280;32676;52.630;4.896;2022-09-11T07:34:31;100910.94;;;17.52;83.96
46942;BME280;32676;52.630;4.896;2022-09-11T07:36:59;100955.56;;;17.61;83.88
46942;BME280;32676;52.630;4.896;2022-09-11T07:39:26;100997.53;;;17.71;83.47
46942;BME280;32676;52.630;4.896;2022-09-11T07:41:53;101021.28;;;17.74;83.37
46942;BME280;32676;52.630;4.896;2022-09-11T07:44:19;101057.97;;;17.83;82.04
46942;BME280;32676;52.630;4.896;2022-09-11T07:46:47;101088.75;;;17.87;80.88
46942;BME280;32676;52.630;4.896;2022-09-11T07:49:14;101101.34;;;17.83;80.28
46942;BME280;32676;52.630;4.896;2022-09-11T07:51:40;101159.53;;;18.04;80.15
46942;BME280;32676;52.630;4.896;2022-09-11T07:54:09;101167.22;;;17.94;79.58
46942;BME280;32676;52.630;4.896;2022-09-11T07:56:36;101229.81;;;18.16;79.39
46942;BME280;32676;52.630;4.896;2022-09-11T07:59:06;101271.47;;;18.31;78.67
46942;BME280;32676;52.630;4.896;2022-09-11T08:01:33;101293.78;;;18.29;77.88
46942;BME280;32676;52.630;4.896;2022-09-11T08:04:02;101340.72;;;18.46;77.62
46942;BME280;32676;52.630;4.896;2022-09-11T08:06:32;101368.78;;;18.51;77.70
46942;BME280;32676;52.630;4.896;2022-09-11T08:09:01;101391.13;;;18.49;77.39
46942;BME280;32676;52.630;4.896;2022-09-11T08:11:30;101413.00;;;18.54;77.09
46942;BME280;32676;52.630;4.896;2022-09-11T08:13:58;101457.22;;;18.72;75.63
46942;BME280;32676;52.630;4.896;2022-09-11T08:16:26;101465.97;;;18.74;73.21
46942;BME280;32676;52.630;4.896;2022-09-11T08:18:53;101466.13;;;18.71;72.56
46942;BME280;32676;52.630;4.896;2022-09-11T08:21:21;101509.81;;;18.85;73.19
46942;BME280;32676;52.630;4.896;2022-09-11T08:23:48;101541.41;;;18.91;73.81
46942;BME280;32676;52.630;4.896;2022-09-11T08:26:18;101563.25;;;18.97;74.32
46942;BME280;32676;52.630;4.896;2022-09-11T08:28:49;101588.69;;;19.03;72.87
46942;BME280;32676;52.630;4.896;2022-09-11T08:31:18;101618.59;;;19.08;71.84
46942;BME280;32676;52.630;4.896;2022-09-11T08:33:45;101608.78;;;19.09;71.35
46942;BME280;32676;52.630;4.896;2022-09-11T08:36:13;101626.66;;;19.07;71.92
46942;BME280;32676;52.630;4.896;2022-09-11T08:38:40;101632.16;;;19.04;72.02
46942;BME280;32676;52.630;4.896;2022-09-11T08:41:10;101603.81;;;18.87;72.18
46942;BME280;32676;52.630;4.896;2022-09-11T08:43:43;101682.44;;;19.26;71.54
46942;BME280;32676;52.630;4.896;2022-09-11T08:46:13;101663.78;;;18.94;71.13
46942;BME280;32676;52.630;4.896;2022-09-11T08:48:46;101769.38;;;19.44;71.10
46942;BME280;32676;52.630;4.896;2022-09-11T08:51:16;101805.34;;;19.53;70.49
46942;BME280;32676;52.630;4.896;2022-09-11T08:53:43;101836.34;;;19.55;70.01
46942;BME280;32676;52.630;4.896;2022-09-11T08:56:14;101847.00;;;19.55;70.41
46942;BME280;32676;52.630;4.896;2022-09-11T08:58:47;101886.97;;;19.73;69.91
46942;BME280;32676;52.630;4.896;2022-09-11T09:01:31;101881.16;;;19.65;70.10
46942;BME280;32676;52.630;4.896;2022-09-11T09:04:12;101887.91;;;19.72;69.47
46942;BME280;32676;52.630;4.896;2022-09-11T09:06:53;101891.22;;;19.60;69.08
46942;BME280;32676;52.630;4.896;2022-09-11T09:09:28;101930.50;;;19.73;69.28
46942;BME280;32676;52.630;4.896;2022-09-11T09:12:04;102004.75;;;19.99;69.67
46942;BME280;32676;52.630;4.896;2022-09-11T09:14:57;102030.31;;;20.03;69.25
46942;BME280;32676;52.630;4.896;2022-09-11T09:17:32;102089.00;;;20.20;68.60
46942;BME280;32676;52.630;4.896;2022-09-11T09:20:04;102117.19;;;20.26;67.77
46942;BME280;32676;52.630;4.896;2022-09-11T09:22:41;102119.84;;;20.26;67.28
46942;BME280;32676;52.630;4.896;2022-09-11T09:25:12;102117.25;;;20.24;67.76
46942;BME280;32676;52.630;4.896;2022-09-11T09:27:43;102097.94;;;20.19;68.40
46942;BME280;32676;52.630;4.896;2022-09-11T09:30:14;102054.03;;;20.09;67.73
46942;BME280;32676;52.630;4.896;2022-09-11T09:32:47;102064.56;;;20.12;67.58
46942;BME280;32676;52.630;4.896;2022-09-11T09:35:19;102090.75;;;20.21;67.34
46942;BME280;32676;52.630;4.896;2022-09-11T09:37:47;102122.94;;;20.18;67.03
46942;BME280;32676;52.630;4.896;2022-09-11T09:40:15;102170.78;;;20.39;67.60
46942;BME280;32676;52.630;4.896;2022-09-11T09:42:54;102205.03;;;20.48;67.77
46942;BME280;32676;52.630;4.896;2022-09-11T09:45:37;102303.72;;;20.68;67.74
46942;BME280;32676;52.630;4.896;2022-09-11T09:48:07;102349.75;;;20.74;67.23
46942;BME280;32676;52.630;4.896;2022-09-11T09:50:37;102453.38;;;21.03;66.12
46942;BME280;32676;52.630;4.896;2022-09-11T09:53:10;102524.75;;;21.19;66.01
46942;BME280;32676;52.630;4.896;2022-09-11T09:55:40;102557.34;;;21.27;64.66
46942;BME280;32676;52.630;4.896;2022-09-11T09:58:07;102575.41;;;21.22;63.55
46942;BME280;32676;52.630;4.896;2022-09-11T10:00:35;102630.66;;;21.40;64.19
46942;BME280;32676;52.630;4.896;2022-09-11T10:03:16;102687.84;;;21.57;64.24
46942;BME280;32676;52.630;4.896;2022-09-11T10:05:44;102711.19;;;21.53;64.80
46942;BME280;32676;52.630;4.896;2022-09-11T10:08:24;102759.25;;;21.74;64.11
46942;BME280;32676;52.630;4.896;2022-09-11T10:10:53;102768.09;;;21.76;62.54
46942;BME280;32676;52.630;4.896;2022-09-11T10:13:24;102731.78;;;21.70;61.07
46942;BME280;32676;52.630;4.896;2022-09-11T10:15:54;102710.59;;;21.65;60.83
46942;BME280;32676;52.630;4.896;2022-09-11T10:18:30;102677.28;;;21.54;61.27
46942;BME280;32676;52.630;4.896;2022-09-11T10:21:12;102665.00;;;21.50;61.81
46942;BME280;32676;52.630;4.896;2022-09-11T10:23:44;102722.81;;;21.71;62.87
46942;BME280;32676;52.630;4.896;2022-09-11T10:26:14;102738.88;;;21.71;62.38
46942;BME280;32676;52.630;4.896;2022-09-11T10:28:42;102777.47;;;21.84;62.42
46942;BME280;32676;52.630;4.896;2022-09-11T10:31:12;102778.50;;;21.82;62.26
46942;BME280;32676;52.630;4.896;2022-09-11T10:33:45;102802.66;;;21.80;62.21
46942;BME280;32676;52.630;4.896;2022-09-11T10:36:21;102833.00;;;21.98;61.21
46942;BME280;32676;52.630;4.896;2022-09-11T10:38:48;102824.06;;;21.99;61.53
46942;BME280;32676;52.630;4.896;2022-09-11T10:41:17;102829.41;;;21.99;61.93
46942;BME280;32676;52.630;4.896;2022-09-11T10:43:49;102801.34;;;21.89;60.98
46942;BME280;32676;52.630;4.896;2022-09-11T10:46:25;102807.28;;;21.96;61.23
46942;BME280;32676;52.630;4.896;2022-09-11T10:48:57;102783.31;;;21.93;60.86
46942;BME280;32676;52.630;4.896;2022-09-11T10:51:25;102782.34;;;21.94;60.22
46942;BME280;32676;52.630;4.896;2022-09-11T10:54:11;102807.09;;;21.99;59.97
46942;BME280;32676;52.630;4.896;2022-09-11T10:57:01;102821.13;;;22.04;60.42
46942;BME280;32676;52.630;4.896;2022-09-11T10:59:34;102834.38;;;22.07;60.11
46942;BME280;32676;52.630;4.896;2022-09-11T11:02:14;102831.69;;;22.07;60.61
46942;BME280;32676;52.630;4.896;2022-09-11T11:04:46;102805.22;;;22.01;59.80
46942;BME280;32676;52.630;4.896;2022-09-11T11:07:21;102798.00;;;22.03;59.76
46942;BME280;32676;52.630;4.896;2022-09-11T11:10:02;102789.31;;;21.98;59.26
46942;BME280;32676;52.630;4.896;2022-09-11T11:12:43;102771.50;;;21.97;59.06
46942;BME280;32676;52.630;4.896;2022-09-11T11:15:28;102745.50;;;21.81;60.54
46942;BME280;32676;52.630;4.896;2022-09-11T11:18:11;102777.50;;;22.02;62.17
46942;BME280;32676;52.630;4.896;2022-09-11T11:20:51;102766.00;;;22.00;63.73
46942;BME280;32676;52.630;4.896;2022-09-11T11:23:41;102748.59;;;21.91;63.63
46942;BME280;32676;52.630;4.896;2022-09-11T11:26:20;102766.88;;;22.00;64.17
46942;BME280;32676;52.630;4.896;2022-09-11T11:29:06;102771.66;;;21.94;64.78
46942;BME280;32676;52.630;4.896;2022-09-11T11:31:47;102806.50;;;22.11;64.30
46942;BME280;32676;52.630;4.896;2022-09-11T11:34:32;102806.50;;;22.11;63.80
46942;BME280;32676;52.630;4.896;2022-09-11T11:37:08;102797.69;;;22.09;62.49
46942;BME280;32676;52.630;4.896;2022-09-11T11:39:46;102783.50;;;22.07;62.01
46942;BME280;32676;52.630;4.896;2022-09-11T11:42:18;102767.59;;;22.04;61.66
46942;BME280;32676;52.630;4.896;2022-09-11T11:44:50;102784.34;;;22.08;62.50
46942;BME280;32676;52.630;4.896;2022-09-11T11:47:21;102789.56;;;22.11;62.85
46942;BME280;32676;52.630;4.896;2022-09-11T11:49:55;102801.84;;;22.15;60.90
46942;BME280;32676;52.630;4.896;2022-09-11T11:52:50;102842.59;;;22.21;62.04
46942;BME280;32676;52.630;4.896;2022-09-11T11:55:20;102847.16;;;22.19;61.61
46942;BME280;32676;52.630;4.896;2022-09-11T11:57:57;102917.66;;;22.39;60.65
46942;BME280;32676;52.630;4.896;2022-09-11T12:00:26;102978.47;;;22.56;61.42
46942;BME280;32676;52.630;4.896;2022-09-11T12:02:59;103029.16;;;22.60;61.58
46942;BME280;32676;52.630;4.896;2022-09-11T12:05:30;103029.94;;;22.62;60.29
46942;BME280;32676;52.630;4.896;2022-09-11T12:07:59;103042.88;;;22.72;60.38
46942;BME280;32676;52.630;4.896;2022-09-11T12:10:29;103014.97;;;22.58;60.35
46942;BME280;32676;52.630;4.896;2022-09-11T12:12:59;103013.06;;;22.60;60.32
46942;BME280;32676;52.630;4.896;2022-09-11T12:15:28;102986.19;;;22.62;60.71
46942;BME280;32676;52.630;4.896;2022-09-11T12:18:01;102958.81;;;22.55;61.66
46942;BME280;32676;52.630;4.896;2022-09-11T12:20:34;102941.94;;;22.53;61.88
46942;BME280;32676;52.630;4.896;2022-09-11T12:23:05;102935.72;;;22.53;61.80
46942;BME280;32676;52.630;4.896;2022-09-11T12:25:48;102918.94;;;22.49;61.68
46942;BME280;32676;52.630;4.896;2022-09-11T12:28:24;102876.47;;;22.41;61.91
46942;BME280;32676;52.630;4.896;2022-09-11T12:31:02;102838.47;;;22.33;62.88
46942;BME280;32676;52.630;4.896;2022-09-11T12:33:53;102782.72;;;22.22;63.21
46942;BME280;32676;52.630;4.896;2022-09-11T12:36:31;102731.53;;;22.11;63.11
46942;BME280;32676;52.630;4.896;2022-09-11T12:39:05;102685.69;;;22.00;63.57
46942;BME280;32676;52.630;4.896;2022-09-11T12:41:41;102651.38;;;21.91;63.21
46942;BME280;32676;52.630;4.896;2022-09-11T12:44:27;102608.06;;;21.82;63.52
46942;BME280;32676;52.630;4.896;2022-09-11T12:47:07;102592.00;;;21.82;63.93
46942;BME280;32676;52.630;4.896;2022-09-11T12:49:37;102585.78;;;21.82;64.33
46942;BME280;32676;52.630;4.896;2022-09-11T12:52:16;102560.38;;;21.73;63.62
46942;BME280;32676;52.630;4.896;2022-09-11T12:54:45;102537.31;;;21.71;64.12
46942;BME280;32676;52.630;4.896;2022-09-11T12:57:16;102500.16;;;21.64;63.79
46942;BME280;32676;52.630;4.896;2022-09-11T12:59:51;102494.91;;;21.63;64.59
46942;BME280;32676;52.630;4.896;2022-09-11T13:02:24;102501.97;;;21.64;65.56
46942;BME280;32676;52.630;4.896;2022-09-11T13:04:53;102498.38;;;21.65;66.04
46942;BME280;32676;52.630;4.896;2022-09-11T13:07:27;102494.91;;;21.63;65.31
46942;BME280;32676;52.630;4.896;2022-09-11T13:10:02;102473.81;;;21.57;65.56
46942;BME280;32676;52.630;4.896;2022-09-11T13:12:52;102447.63;;;21.46;64.74
46942;BME280;32676;52.630;4.896;2022-09-11T13:15:37;102450.00;;;21.52;65.40